createdAt,value
2022-12-25T00:00:08.301Z,789.0070
2022-12-25T00:00:21.105Z,790.8770
2022-12-25T00:00:32.654Z,786.2190
2022-12-25T00:00:43.791Z,785.2940
2022-12-25T00:00:54.936Z,787.1460
2022-12-25T00:01:06.304Z,783.9110
2022-12-25T00:01:17.409Z,784.8320
2022-12-25T00:01:28.455Z,791.3460
2022-12-25T00:01:39.535Z,784.8320
2022-12-25T00:01:50.679Z,790.8770
2022-12-25T00:02:01.859Z,782.0740
2022-12-25T00:02:13.070Z,787.6110
2022-12-25T00:02:24.320Z,785.7560
2022-12-25T00:02:35.558Z,785.7560
2022-12-25T00:02:46.867Z,789.4740
2022-12-25T00:02:58.329Z,782.0740
2022-12-25T00:03:09.656Z,784.3710
2022-12-25T00:03:21.062Z,785.7560
2022-12-25T00:03:32.321Z,787.1460
2022-12-25T00:03:43.602Z,787.1460
2022-12-25T00:03:54.804Z,782.5320
2022-12-25T00:04:06.130Z,787.1460
2022-12-25T00:04:17.238Z,784.3710
2022-12-25T00:04:28.309Z,785.2940
2022-12-25T00:04:39.366Z,788.5410
2022-12-25T00:04:50.429Z,785.2940
2022-12-25T00:05:01.582Z,785.2940
2022-12-25T00:05:12.631Z,782.5320
2022-12-25T00:05:23.712Z,783.4510
2022-12-25T00:05:34.789Z,785.2940
2022-12-25T00:05:45.855Z,784.3710
2022-12-25T00:05:56.961Z,783.9110
2022-12-25T00:06:08.041Z,785.2940
2022-12-25T00:06:19.115Z,783.4510
2022-12-25T00:06:30.215Z,784.3710
2022-12-25T00:06:41.280Z,784.8320
2022-12-25T00:06:52.337Z,783.4510
2022-12-25T00:07:03.391Z,783.4510
2022-12-25T00:07:14.475Z,784.3710
2022-12-25T00:07:25.591Z,785.2940
2022-12-25T00:07:36.658Z,785.2940
2022-12-25T00:07:47.759Z,784.8320
2022-12-25T00:07:58.872Z,782.9910
2022-12-25T00:08:10.137Z,781.6160
2022-12-25T00:08:21.255Z,786.6820
2022-12-25T00:08:32.485Z,781.6160
2022-12-25T00:08:43.656Z,782.0740
2022-12-25T00:08:54.871Z,784.3710
2022-12-25T00:09:06.086Z,781.6160
2022-12-25T00:09:17.297Z,778.8800
2022-12-25T00:09:28.484Z,781.6160
2022-12-25T00:09:39.544Z,784.3710
2022-12-25T00:09:50.628Z,782.5320
2022-12-25T00:10:01.705Z,784.8320
2022-12-25T00:10:12.821Z,784.3710
2022-12-25T00:10:23.883Z,787.1460
2022-12-25T00:10:38.557Z,784.8320
2022-12-25T00:10:51.942Z,775.2610
2022-12-25T00:11:03.069Z,775.2610
2022-12-25T00:11:14.274Z,771.6760
2022-12-25T00:11:25.334Z,781.6160
2022-12-25T00:11:36.396Z,779.7900
2022-12-25T00:11:47.457Z,782.0740
2022-12-25T00:11:58.524Z,778.4260
2022-12-25T00:12:09.621Z,783.4510
2022-12-25T00:12:20.837Z,782.9910
2022-12-25T00:12:32.021Z,777.9720
2022-12-25T00:12:43.236Z,781.6160
2022-12-25T00:12:54.459Z,777.9720
2022-12-25T00:13:05.626Z,777.0660
2022-12-25T00:13:16.830Z,780.2450
2022-12-25T00:13:27.907Z,780.7020
2022-12-25T00:13:38.959Z,781.6160
2022-12-25T00:13:50.328Z,780.7020
2022-12-25T00:14:01.396Z,782.5320
2022-12-25T00:14:12.456Z,783.4510
2022-12-25T00:14:23.610Z,778.8800
2022-12-25T00:14:34.650Z,782.9910
2022-12-25T00:14:45.706Z,785.2940
2022-12-25T00:14:56.821Z,779.7900
2022-12-25T00:15:08.021Z,784.8320
2022-12-25T00:15:19.227Z,786.2190
2022-12-25T00:15:30.423Z,785.7560
2022-12-25T00:15:41.508Z,784.3710
2022-12-25T00:15:52.642Z,787.1460
2022-12-25T00:16:03.829Z,790.8770
2022-12-25T00:16:15.051Z,785.7560
2022-12-25T00:16:26.217Z,785.7560
2022-12-25T00:16:37.719Z,787.1460
2022-12-25T00:16:48.857Z,781.6160
2022-12-25T00:16:59.890Z,786.2190
2022-12-25T00:17:10.951Z,784.3710
2022-12-25T00:17:22.023Z,787.1460
2022-12-25T00:17:33.089Z,789.9410
2022-12-25T00:17:44.175Z,788.5410
2022-12-25T00:17:55.424Z,789.0070
2022-12-25T00:18:06.497Z,789.4740
2022-12-25T00:18:17.626Z,789.0070
2022-12-25T00:18:28.878Z,792.7550
2022-12-25T00:18:39.941Z,790.4090
2022-12-25T00:18:50.998Z,791.3460
2022-12-25T00:19:02.169Z,793.2260
2022-12-25T00:19:13.364Z,795.1160
2022-12-25T00:19:24.575Z,794.1700
2022-12-25T00:19:35.756Z,789.0070
2022-12-25T00:19:46.828Z,788.5410
2022-12-25T00:19:57.903Z,787.1460
2022-12-25T00:20:08.972Z,792.7550
2022-12-25T00:20:19.997Z,794.1700
2022-12-25T00:20:31.116Z,794.1700
2022-12-25T00:20:42.313Z,797.4910
2022-12-25T00:20:53.385Z,793.2260
2022-12-25T00:21:04.462Z,797.9680
2022-12-25T00:21:15.515Z,796.5390
2022-12-25T00:21:26.752Z,796.5390
2022-12-25T00:21:37.802Z,796.5390
2022-12-25T00:21:48.872Z,796.5390
2022-12-25T00:21:59.929Z,796.0640
2022-12-25T00:22:10.985Z,798.9230
2022-12-25T00:22:22.049Z,799.4010
2022-12-25T00:22:33.297Z,797.9680
2022-12-25T00:22:44.434Z,800.8400
2022-12-25T00:22:55.746Z,798.4450
2022-12-25T00:23:06.829Z,797.4910
2022-12-25T00:23:17.913Z,799.4010
2022-12-25T00:23:28.978Z,797.9680
2022-12-25T00:23:40.176Z,799.4010
2022-12-25T00:23:51.364Z,804.2170
2022-12-25T00:24:02.598Z,804.2170
2022-12-25T00:24:13.762Z,804.2170
2022-12-25T00:24:24.985Z,803.2490
2022-12-25T00:24:36.081Z,804.2170
2022-12-25T00:24:47.189Z,803.2490
2022-12-25T00:24:58.255Z,806.1590
2022-12-25T00:25:09.365Z,812.5380
2022-12-25T00:25:20.456Z,804.2170
2022-12-25T00:25:31.672Z,808.1110
2022-12-25T00:25:42.741Z,807.6230
2022-12-25T00:25:53.807Z,812.5380
2022-12-25T00:26:04.976Z,806.1590
2022-12-25T00:26:16.152Z,806.6470
2022-12-25T00:26:27.241Z,811.5500
2022-12-25T00:26:38.368Z,811.0570
2022-12-25T00:26:49.448Z,806.1590
2022-12-25T00:27:00.592Z,809.5820
2022-12-25T00:27:11.652Z,807.6230
2022-12-25T00:27:22.806Z,813.5280
2022-12-25T00:27:33.928Z,812.5380
2022-12-25T00:27:45.003Z,814.0240
2022-12-25T00:27:56.129Z,813.0330
2022-12-25T00:28:07.206Z,813.0330
2022-12-25T00:28:18.343Z,815.0180
2022-12-25T00:28:29.556Z,815.5160
2022-12-25T00:28:40.727Z,814.0240
2022-12-25T00:28:52.011Z,811.0570
2022-12-25T00:29:03.157Z,816.5140
2022-12-25T00:29:14.241Z,816.5140
2022-12-25T00:29:25.315Z,819.0180
2022-12-25T00:29:36.452Z,819.0180
2022-12-25T00:29:47.658Z,814.0240
2022-12-25T00:29:58.723Z,819.5210
2022-12-25T00:30:09.807Z,823.0580
2022-12-25T00:30:20.938Z,819.5210
2022-12-25T00:30:32.137Z,812.0440
2022-12-25T00:30:43.332Z,815.5160
2022-12-25T00:30:54.519Z,817.0130
2022-12-25T00:31:05.741Z,818.0150
2022-12-25T00:31:16.994Z,817.5140
2022-12-25T00:31:28.147Z,820.0250
2022-12-25T00:31:39.397Z,825.0930
2022-12-25T00:31:50.548Z,824.0740
2022-12-25T00:32:01.822Z,818.0150
2022-12-25T00:32:12.956Z,823.0580
2022-12-25T00:32:24.105Z,823.0580
2022-12-25T00:32:35.321Z,821.0330
2022-12-25T00:32:46.378Z,825.0930
2022-12-25T00:32:57.516Z,827.1380
2022-12-25T00:33:08.563Z,829.1930
2022-12-25T00:33:19.782Z,822.0440
2022-12-25T00:33:30.969Z,823.5660
2022-12-25T00:33:42.173Z,828.1640
2022-12-25T00:33:53.373Z,829.1930
2022-12-25T00:34:04.434Z,824.5830
2022-12-25T00:34:15.534Z,821.0330
2022-12-25T00:34:26.595Z,828.6780
2022-12-25T00:34:37.679Z,823.5660
2022-12-25T00:34:48.744Z,830.2240
2022-12-25T00:34:59.964Z,830.7410
2022-12-25T00:35:11.143Z,827.1380
2022-12-25T00:35:22.324Z,832.8130
2022-12-25T00:35:33.385Z,830.2240
2022-12-25T00:35:44.462Z,827.1380
2022-12-25T00:35:55.504Z,832.8130
2022-12-25T00:36:06.774Z,831.7760
2022-12-25T00:36:17.804Z,831.2580
2022-12-25T00:36:28.861Z,826.6250
2022-12-25T00:36:42.208Z,830.2240
2022-12-25T00:36:53.517Z,830.2240
2022-12-25T00:37:04.603Z,824.5830
2022-12-25T00:37:15.680Z,830.2240
2022-12-25T00:37:26.743Z,828.1640
2022-12-25T00:37:37.808Z,829.7080
2022-12-25T00:37:48.872Z,831.2580
2022-12-25T00:38:00.106Z,827.1380
2022-12-25T00:38:11.274Z,826.1140
2022-12-25T00:38:22.477Z,830.7410
2022-12-25T00:38:33.669Z,836.4660
2022-12-25T00:38:44.880Z,833.3330
2022-12-25T00:38:56.073Z,833.3330
2022-12-25T00:39:07.135Z,828.1640
2022-12-25T00:39:18.193Z,837.5160
2022-12-25T00:39:29.345Z,838.0410
2022-12-25T00:39:40.392Z,836.4660
2022-12-25T00:39:51.463Z,831.2580
2022-12-25T00:40:02.652Z,835.4190
2022-12-25T00:40:13.827Z,836.9910
2022-12-25T00:40:24.879Z,832.8130
2022-12-25T00:40:35.951Z,834.8970
2022-12-25T00:40:47.021Z,835.4190
2022-12-25T00:40:58.094Z,839.6230
2022-12-25T00:41:09.194Z,838.5680
2022-12-25T00:41:20.378Z,840.1510
2022-12-25T00:41:31.586Z,838.5680
2022-12-25T00:41:42.776Z,842.2710
2022-12-25T00:41:54.000Z,832.2940
2022-12-25T00:42:05.198Z,840.6800
2022-12-25T00:42:16.379Z,842.8030
2022-12-25T00:42:27.587Z,837.5160
2022-12-25T00:42:38.785Z,843.8690
2022-12-25T00:42:49.999Z,836.4660
2022-12-25T00:43:01.211Z,841.7400
2022-12-25T00:43:12.373Z,841.2100
2022-12-25T00:43:23.599Z,832.8130
2022-12-25T00:43:34.773Z,841.2100
2022-12-25T00:43:45.982Z,842.2710
2022-12-25T00:43:57.169Z,848.1580
2022-12-25T00:44:08.376Z,842.8030
2022-12-25T00:44:19.592Z,842.2710
2022-12-25T00:44:30.785Z,841.7400
2022-12-25T00:44:41.975Z,844.9370
2022-12-25T00:44:53.022Z,847.0810
2022-12-25T00:45:04.084Z,843.8690
2022-12-25T00:45:16.053Z,841.7400
2022-12-25T00:45:27.207Z,843.8690
2022-12-25T00:45:38.437Z,838.5680
2022-12-25T00:45:49.735Z,841.7400
2022-12-25T00:46:00.849Z,847.0810
2022-12-25T00:46:12.033Z,842.8030
2022-12-25T00:46:23.389Z,846.5440
2022-12-25T00:46:34.816Z,844.9370
2022-12-25T00:46:46.006Z,846.5440
2022-12-25T00:46:57.129Z,844.9370
2022-12-25T00:47:08.310Z,847.6190
2022-12-25T00:47:19.559Z,848.6970
2022-12-25T00:47:30.663Z,849.2370
2022-12-25T00:47:41.708Z,848.6970
2022-12-25T00:47:52.799Z,843.3350
2022-12-25T00:48:03.923Z,849.2370
2022-12-25T00:48:15.103Z,843.3350
2022-12-25T00:48:26.242Z,849.2370
2022-12-25T00:48:37.497Z,849.2370
2022-12-25T00:48:48.679Z,850.3180
2022-12-25T00:48:59.907Z,845.4720
2022-12-25T00:49:11.125Z,850.8600
2022-12-25T00:49:22.301Z,851.9460
2022-12-25T00:49:33.493Z,849.7770
2022-12-25T00:49:44.541Z,851.4030
2022-12-25T00:49:55.606Z,853.0350
2022-12-25T00:50:06.775Z,849.2370
2022-12-25T00:50:17.982Z,846.0080
2022-12-25T00:50:29.176Z,854.1270
2022-12-25T00:50:40.366Z,853.5810
2022-12-25T00:50:51.576Z,850.3180
2022-12-25T00:51:02.643Z,854.6730
2022-12-25T00:51:13.714Z,852.4900
2022-12-25T00:51:24.803Z,856.8680
2022-12-25T00:51:35.949Z,854.6730
2022-12-25T00:51:47.046Z,853.5810
2022-12-25T00:51:58.253Z,855.7690
2022-12-25T00:52:09.454Z,849.7770
2022-12-25T00:52:20.658Z,852.4900
2022-12-25T00:52:31.852Z,854.1270
2022-12-25T00:52:43.056Z,857.4180
2022-12-25T00:52:54.137Z,857.9690
2022-12-25T00:53:05.216Z,859.0730
2022-12-25T00:53:16.259Z,853.5810
2022-12-25T00:53:27.370Z,856.8680
2022-12-25T00:53:38.419Z,858.5210
2022-12-25T00:53:49.637Z,860.7350
2022-12-25T00:54:00.821Z,854.1270
2022-12-25T00:54:11.882Z,853.5810
2022-12-25T00:54:22.982Z,855.7690
2022-12-25T00:54:34.094Z,861.2900
2022-12-25T00:54:45.301Z,861.2900
2022-12-25T00:54:56.504Z,851.4030
2022-12-25T00:55:07.702Z,859.6270
2022-12-25T00:55:18.897Z,860.1800
2022-12-25T00:55:29.975Z,858.5210
2022-12-25T00:55:41.199Z,856.3180
2022-12-25T00:55:52.300Z,857.9690
2022-12-25T00:56:03.381Z,859.0730
2022-12-25T00:56:14.455Z,861.2900
2022-12-25T00:56:25.523Z,860.1800
2022-12-25T00:56:36.637Z,861.8460
2022-12-25T00:56:47.734Z,861.2900
2022-12-25T00:56:58.781Z,857.9690
2022-12-25T00:57:09.864Z,866.8830
2022-12-25T00:57:20.934Z,865.7590
2022-12-25T00:57:32.117Z,864.0780
2022-12-25T00:57:43.187Z,868.0100
2022-12-25T00:57:54.295Z,864.6370
2022-12-25T00:58:05.447Z,866.3210
2022-12-25T00:58:16.539Z,862.9610
2022-12-25T00:58:27.739Z,862.4030
2022-12-25T00:58:38.933Z,863.5190
2022-12-25T00:58:49.997Z,865.1980
2022-12-25T00:59:01.070Z,857.4180
2022-12-25T00:59:12.150Z,860.1800
2022-12-25T00:59:23.301Z,869.7070
2022-12-25T00:59:34.497Z,865.7590
2022-12-25T00:59:45.585Z,864.6370
2022-12-25T00:59:56.668Z,866.8830
2022-12-25T01:00:07.793Z,863.5190
2022-12-25T01:00:18.848Z,859.0730
2022-12-25T01:00:29.906Z,868.0100
2022-12-25T01:00:41.169Z,860.1800
2022-12-25T01:00:52.275Z,866.8830
2022-12-25T01:01:03.423Z,863.5190
2022-12-25T01:01:14.663Z,868.0100
2022-12-25T01:01:26.108Z,859.0730
2022-12-25T01:01:37.656Z,869.7070
2022-12-25T01:01:49.296Z,869.1410
2022-12-25T01:02:00.726Z,857.4180
2022-12-25T01:02:12.061Z,862.9610
2022-12-25T01:02:23.432Z,869.1410
2022-12-25T01:02:35.067Z,860.1800
2022-12-25T01:02:46.306Z,868.0100
2022-12-25T01:02:57.725Z,865.7590
2022-12-25T01:03:09.162Z,865.1980
2022-12-25T01:03:20.279Z,866.8830
2022-12-25T01:03:31.419Z,866.8830
2022-12-25T01:03:42.610Z,868.0100
2022-12-25T01:03:53.823Z,865.1980
2022-12-25T01:04:05.032Z,867.4460
2022-12-25T01:04:16.127Z,868.0100
2022-12-25T01:04:27.193Z,865.7590
2022-12-25T01:04:38.293Z,865.7590
2022-12-25T01:04:49.514Z,865.7590
2022-12-25T01:05:00.546Z,869.1410
2022-12-25T01:05:11.618Z,869.1410
2022-12-25T01:05:22.789Z,868.5750
2022-12-25T01:05:33.971Z,867.4460
2022-12-25T01:05:45.180Z,870.2740
2022-12-25T01:05:56.234Z,865.1980
2022-12-25T01:06:07.361Z,872.5490
2022-12-25T01:06:18.568Z,871.4100
2022-12-25T01:06:29.647Z,869.7070
2022-12-25T01:06:40.740Z,870.2740
2022-12-25T01:06:51.769Z,866.8830
2022-12-25T01:07:02.828Z,881.1880
2022-12-25T01:07:13.917Z,869.1410
2022-12-25T01:07:25.132Z,866.3210
2022-12-25T01:07:36.198Z,872.5490
2022-12-25T01:07:47.291Z,873.1200
2022-12-25T01:07:58.466Z,873.6910
2022-12-25T01:08:09.619Z,873.6910
2022-12-25T01:08:20.779Z,869.1410
2022-12-25T01:08:31.884Z,873.6910
2022-12-25T01:08:42.965Z,874.8360
2022-12-25T01:08:54.178Z,875.9840
2022-12-25T01:09:05.252Z,874.2630
2022-12-25T01:09:16.289Z,870.2740
2022-12-25T01:09:27.451Z,868.5750
2022-12-25T01:09:38.534Z,876.5590
2022-12-25T01:09:49.578Z,867.4460
2022-12-25T01:10:00.744Z,871.9790
2022-12-25T01:10:11.801Z,873.6910
2022-12-25T01:10:22.905Z,867.4460
2022-12-25T01:10:34.025Z,873.6910
2022-12-25T01:10:45.084Z,878.2890
2022-12-25T01:10:56.167Z,874.8360
2022-12-25T01:11:07.243Z,881.1880
2022-12-25T01:11:18.331Z,871.9790
2022-12-25T01:11:29.399Z,874.2630
2022-12-25T01:11:40.572Z,870.8410
2022-12-25T01:11:51.635Z,877.1350
2022-12-25T01:12:02.696Z,879.4470
2022-12-25T01:12:13.862Z,878.8680
2022-12-25T01:12:25.054Z,880.0260
2022-12-25T01:12:36.271Z,880.6070
2022-12-25T01:12:47.459Z,878.2890
2022-12-25T01:12:58.499Z,876.5590
2022-12-25T01:13:09.569Z,875.9840
2022-12-25T01:13:20.684Z,875.9840
2022-12-25T01:13:31.744Z,877.1350
2022-12-25T01:13:42.783Z,874.8360
2022-12-25T01:13:53.858Z,875.4100
2022-12-25T01:14:04.989Z,881.7700
2022-12-25T01:14:16.050Z,878.2890
2022-12-25T01:14:27.104Z,880.0260
2022-12-25T01:14:38.196Z,876.5590
2022-12-25T01:14:49.365Z,881.1880
2022-12-25T01:15:00.427Z,880.6070
2022-12-25T01:15:11.489Z,875.9840
2022-12-25T01:15:22.543Z,878.2890
2022-12-25T01:15:33.626Z,875.9840
2022-12-25T01:15:44.695Z,880.0260
2022-12-25T01:15:56.052Z,884.1060
2022-12-25T01:16:07.274Z,880.0260
2022-12-25T01:16:18.402Z,880.6070
2022-12-25T01:16:29.560Z,874.8360
2022-12-25T01:16:40.778Z,880.6070
2022-12-25T01:16:52.080Z,880.6070
2022-12-25T01:17:03.232Z,879.4470
2022-12-25T01:17:14.317Z,874.8360
2022-12-25T01:17:25.543Z,880.6070
2022-12-25T01:17:36.610Z,878.2890
2022-12-25T01:17:47.679Z,884.1060
2022-12-25T01:18:01.603Z,875.4100
2022-12-25T01:18:15.762Z,872.5490
2022-12-25T01:18:26.897Z,871.4100
2022-12-25T01:18:38.046Z,874.8360
2022-12-25T01:18:49.247Z,874.8360
2022-12-25T01:19:00.316Z,880.6070
2022-12-25T01:19:11.376Z,878.2890
2022-12-25T01:19:22.451Z,878.2890
2022-12-25T01:19:33.696Z,880.6070
2022-12-25T01:19:44.897Z,882.9370
2022-12-25T01:19:55.976Z,874.8360
2022-12-25T01:20:07.032Z,878.2890
2022-12-25T01:20:18.104Z,883.5210
2022-12-25T01:20:29.142Z,877.1350
2022-12-25T01:20:40.209Z,881.7700
2022-12-25T01:20:51.270Z,882.9370
2022-12-25T01:21:02.335Z,882.9370
2022-12-25T01:21:13.536Z,884.1060
2022-12-25T01:21:24.629Z,885.8660
2022-12-25T01:21:35.730Z,880.6070
2022-12-25T01:21:46.922Z,880.6070
2022-12-25T01:21:58.134Z,878.2890
2022-12-25T01:22:09.323Z,883.5210
2022-12-25T01:22:20.372Z,881.1880
2022-12-25T01:22:31.452Z,883.5210
2022-12-25T01:22:42.493Z,886.4540
2022-12-25T01:22:53.551Z,885.2790
2022-12-25T01:23:04.622Z,884.6920
2022-12-25T01:23:15.870Z,884.1060
2022-12-25T01:23:27.111Z,885.8660
2022-12-25T01:23:38.306Z,885.2790
2022-12-25T01:23:49.342Z,887.6330
2022-12-25T01:24:00.424Z,882.9370
2022-12-25T01:24:11.562Z,885.2790
2022-12-25T01:24:22.752Z,885.2790
2022-12-25T01:24:33.971Z,881.1880
2022-12-25T01:24:45.163Z,886.4540
2022-12-25T01:24:56.220Z,884.1060
2022-12-25T01:25:07.278Z,884.1060
2022-12-25T01:25:18.343Z,890.0000
2022-12-25T01:25:29.439Z,880.0260
2022-12-25T01:25:40.503Z,881.7700
2022-12-25T01:25:51.562Z,885.2790
2022-12-25T01:26:02.713Z,887.6330
2022-12-25T01:26:13.914Z,888.8150
2022-12-25T01:26:25.116Z,882.3530
2022-12-25T01:26:36.318Z,882.9370
2022-12-25T01:26:47.519Z,888.8150
2022-12-25T01:26:58.591Z,890.0000
2022-12-25T01:27:09.645Z,884.6920
2022-12-25T01:27:20.794Z,885.8660
2022-12-25T01:27:31.874Z,887.0430
2022-12-25T01:27:42.962Z,885.2790
2022-12-25T01:27:54.076Z,886.4540
2022-12-25T01:28:05.156Z,885.2790
2022-12-25T01:28:16.231Z,888.8150
2022-12-25T01:28:27.305Z,885.8660
2022-12-25T01:28:38.379Z,892.3800
2022-12-25T01:28:49.432Z,886.4540
2022-12-25T01:29:00.496Z,887.6330
2022-12-25T01:29:11.722Z,881.1880
2022-12-25T01:29:22.927Z,887.6330
2022-12-25T01:29:34.113Z,887.0430
2022-12-25T01:29:45.329Z,888.8150
2022-12-25T01:29:56.512Z,887.6330
2022-12-25T01:30:07.617Z,890.0000
2022-12-25T01:30:18.668Z,888.8150
2022-12-25T01:30:29.727Z,890.0000
2022-12-25T01:30:40.791Z,888.2240
2022-12-25T01:30:51.852Z,892.9770
2022-12-25T01:31:03.084Z,885.2790
2022-12-25T01:31:14.271Z,890.0000
2022-12-25T01:31:25.308Z,883.5210
2022-12-25T01:31:36.447Z,891.7840
2022-12-25T01:31:47.592Z,890.0000
2022-12-25T01:31:58.771Z,888.2240
2022-12-25T01:32:10.037Z,894.1730
2022-12-25T01:32:21.094Z,887.6330
2022-12-25T01:32:32.163Z,891.7840
2022-12-25T01:32:43.266Z,887.6330
2022-12-25T01:32:54.452Z,894.7720
2022-12-25T01:33:05.500Z,893.5740
2022-12-25T01:33:16.587Z,890.0000
2022-12-25T01:33:27.683Z,890.5940
2022-12-25T01:33:38.753Z,894.7720
2022-12-25T01:33:49.828Z,894.1730
2022-12-25T01:34:01.025Z,885.2790
2022-12-25T01:34:12.071Z,893.5740
2022-12-25T01:34:23.151Z,892.9770
2022-12-25T01:34:34.231Z,895.3720
2022-12-25T01:34:48.183Z,887.6330
2022-12-25T01:35:02.403Z,877.1350
2022-12-25T01:35:13.579Z,886.4540
2022-12-25T01:35:24.779Z,884.1060
2022-12-25T01:35:35.848Z,891.1880
2022-12-25T01:35:46.920Z,890.5940
2022-12-25T01:35:57.995Z,888.2240
2022-12-25T01:36:09.073Z,894.1730
2022-12-25T01:36:20.144Z,893.5740
2022-12-25T01:36:31.341Z,893.5740
2022-12-25T01:36:42.411Z,892.3800
2022-12-25T01:36:53.507Z,890.0000
2022-12-25T01:37:04.589Z,890.0000
2022-12-25T01:37:15.659Z,893.5740
2022-12-25T01:37:26.860Z,888.2240
2022-12-25T01:37:37.964Z,885.2790
2022-12-25T01:37:49.110Z,891.1880
2022-12-25T01:38:00.162Z,892.9770
2022-12-25T01:38:11.219Z,893.5740
2022-12-25T01:38:22.299Z,888.2240
2022-12-25T01:38:33.484Z,887.6330
2022-12-25T01:38:44.609Z,887.0430
2022-12-25T01:38:55.687Z,888.8150
2022-12-25T01:39:06.798Z,894.7720
2022-12-25T01:39:17.883Z,894.1730
2022-12-25T01:39:28.931Z,893.5740
2022-12-25T01:39:40.016Z,892.3800
2022-12-25T01:39:51.090Z,885.8660
2022-12-25T01:40:02.286Z,893.5740
2022-12-25T01:40:13.487Z,889.4070
2022-12-25T01:40:24.537Z,896.5750
2022-12-25T01:40:35.601Z,894.7720
2022-12-25T01:40:46.758Z,888.8150
2022-12-25T01:40:57.977Z,898.3850
2022-12-25T01:41:09.168Z,894.7720
2022-12-25T01:41:20.251Z,894.7720
2022-12-25T01:41:31.310Z,893.5740
2022-12-25T01:41:42.371Z,891.1880
2022-12-25T01:41:53.495Z,895.9730
2022-12-25T01:42:04.563Z,898.3850
2022-12-25T01:42:15.655Z,897.1770
2022-12-25T01:42:26.758Z,897.7810
2022-12-25T01:42:37.860Z,895.9730
2022-12-25T01:42:48.942Z,897.1770
2022-12-25T01:43:00.055Z,895.3720
2022-12-25T01:43:17.056Z,894.7720
2022-12-25T01:43:28.192Z,884.1060
2022-12-25T01:43:39.271Z,885.8660
2022-12-25T01:43:50.341Z,888.8150
2022-12-25T01:44:01.401Z,887.6330
2022-12-25T01:44:12.477Z,893.5740
2022-12-25T01:44:23.551Z,892.3800
2022-12-25T01:44:34.591Z,891.1880
2022-12-25T01:44:45.653Z,895.3720
2022-12-25T01:44:56.834Z,895.9730
2022-12-25T01:45:08.034Z,890.0000
2022-12-25T01:45:19.231Z,901.4180
2022-12-25T01:45:30.544Z,892.3800
2022-12-25T01:45:41.663Z,887.6330
2022-12-25T01:45:52.825Z,890.5940
2022-12-25T01:46:04.148Z,898.9900
2022-12-25T01:46:15.258Z,894.1730
2022-12-25T01:46:26.322Z,886.4540
2022-12-25T01:46:37.391Z,898.3850
2022-12-25T01:46:48.432Z,898.3850
2022-12-25T01:46:59.478Z,895.9730
2022-12-25T01:47:10.592Z,897.1770
2022-12-25T01:47:21.644Z,895.9730
2022-12-25T01:47:32.762Z,896.5750
2022-12-25T01:47:43.810Z,893.5740
2022-12-25T01:47:54.871Z,890.0000
2022-12-25T01:48:05.933Z,898.3850
2022-12-25T01:48:16.979Z,886.4540
2022-12-25T01:48:28.124Z,897.1770
2022-12-25T01:48:39.338Z,893.5740
2022-12-25T01:48:50.549Z,899.5960
2022-12-25T01:49:01.722Z,893.5740
2022-12-25T01:49:12.895Z,897.1770
2022-12-25T01:49:23.965Z,902.6370
2022-12-25T01:49:35.052Z,902.0270
2022-12-25T01:49:46.109Z,897.1770
2022-12-25T01:49:57.188Z,896.5750
2022-12-25T01:50:08.252Z,888.8150
2022-12-25T01:50:20.124Z,889.4070
2022-12-25T01:50:31.292Z,899.5960
2022-12-25T01:50:42.496Z,898.3850
2022-12-25T01:50:53.539Z,896.5750
2022-12-25T01:51:04.602Z,900.8100
2022-12-25T01:51:15.703Z,899.5960
2022-12-25T01:51:26.763Z,899.5960
2022-12-25T01:51:37.859Z,892.3800
2022-12-25T01:51:48.928Z,897.7810
2022-12-25T01:52:00.003Z,902.0270
2022-12-25T01:52:11.079Z,898.3850
2022-12-25T01:52:24.448Z,900.8100
2022-12-25T01:52:35.812Z,894.7720
2022-12-25T01:52:46.967Z,892.3800
2022-12-25T01:52:58.163Z,897.1770
2022-12-25T01:53:09.235Z,894.7720
2022-12-25T01:53:20.300Z,894.1730
2022-12-25T01:53:31.500Z,894.1730
2022-12-25T01:53:42.598Z,897.1770
2022-12-25T01:53:53.724Z,897.1770
2022-12-25T01:54:04.782Z,894.7720
2022-12-25T01:54:15.847Z,890.5940
2022-12-25T01:54:27.023Z,890.0000
2022-12-25T01:54:38.227Z,889.4070
2022-12-25T01:54:49.275Z,900.8100
2022-12-25T01:55:00.335Z,898.3850
2022-12-25T01:55:11.504Z,894.7720
2022-12-25T01:55:22.715Z,898.3850
2022-12-25T01:55:33.906Z,898.3850
2022-12-25T01:55:44.982Z,897.1770
2022-12-25T01:55:56.049Z,895.9730
2022-12-25T01:56:07.163Z,891.1880
2022-12-25T01:56:18.212Z,900.2020
2022-12-25T01:56:29.265Z,898.3850
2022-12-25T01:56:40.475Z,899.5960
2022-12-25T01:56:51.558Z,902.0270
2022-12-25T01:57:02.784Z,899.5960
2022-12-25T01:57:13.863Z,895.9730
2022-12-25T01:57:24.951Z,897.7810
2022-12-25T01:57:36.144Z,897.1770
2022-12-25T01:57:47.208Z,898.9900
2022-12-25T01:57:58.264Z,894.7720
2022-12-25T01:58:09.318Z,894.7720
2022-12-25T01:58:20.372Z,900.2020
2022-12-25T01:58:31.460Z,901.4180
2022-12-25T01:58:42.675Z,898.3850
2022-12-25T01:58:53.903Z,902.0270
2022-12-25T01:59:05.097Z,898.9900
2022-12-25T01:59:16.143Z,897.1770
2022-12-25T01:59:27.229Z,900.2020
2022-12-25T01:59:38.354Z,898.9900
2022-12-25T01:59:49.571Z,897.1770
2022-12-25T02:00:00.757Z,898.3850
2022-12-25T02:00:11.965Z,893.5740
2022-12-25T02:00:23.023Z,898.9900
2022-12-25T02:00:34.113Z,898.3850
2022-12-25T02:00:45.307Z,895.9730
2022-12-25T02:00:56.433Z,898.9900
2022-12-25T02:01:07.616Z,902.0270
2022-12-25T02:01:18.847Z,897.1770
2022-12-25T02:01:30.070Z,900.2020
2022-12-25T02:01:41.298Z,894.7720
2022-12-25T02:01:52.590Z,905.6990
2022-12-25T02:02:04.023Z,894.7720
2022-12-25T02:02:15.454Z,898.9900
2022-12-25T02:02:26.731Z,898.9900
2022-12-25T02:02:37.910Z,897.1770
2022-12-25T02:02:49.173Z,900.2020
2022-12-25T02:03:00.526Z,899.5960
2022-12-25T02:03:11.710Z,899.5960
2022-12-25T02:03:22.961Z,898.9900
2022-12-25T02:03:34.061Z,897.1770
2022-12-25T02:03:45.236Z,902.6370
2022-12-25T02:03:56.354Z,900.2020
2022-12-25T02:04:07.428Z,899.5960
2022-12-25T02:04:18.523Z,900.8100
2022-12-25T02:04:29.569Z,900.8100
2022-12-25T02:04:40.680Z,903.8590
2022-12-25T02:04:51.811Z,896.5750
2022-12-25T02:05:02.859Z,897.7810
2022-12-25T02:05:13.937Z,903.2480
2022-12-25T02:05:25.079Z,898.3850
2022-12-25T02:05:36.120Z,906.3140
2022-12-25T02:05:47.182Z,896.5750
2022-12-25T02:05:58.357Z,902.0270
2022-12-25T02:06:09.403Z,901.4180
2022-12-25T02:06:20.439Z,903.2480
2022-12-25T02:06:31.639Z,902.0270
2022-12-25T02:06:42.863Z,900.8100
2022-12-25T02:06:54.043Z,902.0270
2022-12-25T02:07:05.106Z,895.9730
2022-12-25T02:07:16.171Z,903.2480
2022-12-25T02:07:27.368Z,902.0270
2022-12-25T02:07:38.564Z,901.4180
2022-12-25T02:07:49.739Z,903.2480
2022-12-25T02:08:00.953Z,902.0270
2022-12-25T02:08:12.060Z,905.0850
2022-12-25T02:08:23.160Z,903.2480
2022-12-25T02:08:34.242Z,903.8590
2022-12-25T02:08:45.424Z,905.0850
2022-12-25T02:08:56.739Z,903.2480
2022-12-25T02:09:07.797Z,905.6990
2022-12-25T02:09:18.886Z,904.4720
2022-12-25T02:09:29.960Z,905.0850
2022-12-25T02:09:41.006Z,903.2480
2022-12-25T02:09:52.065Z,899.5960
2022-12-25T02:10:03.126Z,905.6990
2022-12-25T02:10:14.199Z,902.6370
2022-12-25T02:10:25.278Z,908.1630
2022-12-25T02:10:36.307Z,900.8100
2022-12-25T02:10:47.403Z,904.4720
2022-12-25T02:10:58.452Z,903.2480
2022-12-25T02:11:09.515Z,898.9900
2022-12-25T02:11:20.566Z,905.6990